Time;durP1;ratioP1;P1;durP2;ratioP2;P2;SDS_P1;SDS_P2;PMS_P1;PMS_P2;Temp;Humidity;BMP_temperature;BMP_pressure;BME280_temperature;BME280_humidity;BME280_pressure;Samples;Min_cycle;Max_cycle;Signal;HPM_P1;HPM_P2
2023/12/21 00:00:50;;;;;;;0.50;0.50;;;12.70;72.80;;;;;;5070913;28;20083;-70
2023/12/21 00:03:17;;;;;;;0.50;0.50;;;12.60;72.90;;;;;;5066706;28;20029;-70
2023/12/21 00:05:43;;;;;;;0.40;0.40;;;12.70;72.90;;;;;;5070309;28;20025;-70
2023/12/21 00:08:08;;;;;;;0.40;0.40;;;12.70;72.80;;;;;;5072802;28;20029;-71
2023/12/21 00:10:34;;;;;;;0.40;0.40;;;12.60;72.80;;;;;;5072473;28;20422;-70
2023/12/21 00:12:59;;;;;;;0.43;0.43;;;12.70;72.90;;;;;;5054538;28;20453;-70
2023/12/21 00:15:25;;;;;;;0.52;0.52;;;12.70;72.90;;;;;;5072306;28;20379;-70
2023/12/21 00:17:50;;;;;;;0.40;0.40;;;12.70;72.80;;;;;;5079747;28;20024;-72
2023/12/21 00:20:16;;;;;;;0.45;0.45;;;12.70;72.80;;;;;;5080515;28;20024;-72
2023/12/21 00:22:42;;;;;;;0.40;0.40;;;12.70;72.80;;;;;;5078726;28;20032;-71
2023/12/21 00:25:07;;;;;;;0.40;0.40;;;12.70;72.80;;;;;;5075739;28;20025;-70
2023/12/21 00:27:33;;;;;;;0.40;0.40;;;12.70;72.90;;;;;;5072653;28;20043;-71
2023/12/21 00:29:58;;;;;;;0.40;0.40;;;12.70;72.90;;;;;;5072009;28;20391;-69
2023/12/21 00:32:24;;;;;;;0.40;0.40;;;12.70;72.90;;;;;;5076538;28;20025;-72
2023/12/21 00:34:49;;;;;;;0.40;0.40;;;12.70;72.90;;;;;;5078871;28;20033;-72
2023/12/21 00:37:15;;;;;;;0.40;0.40;;;12.70;72.80;;;;;;5078866;28;20082;-72
2023/12/21 00:39:41;;;;;;;0.50;0.50;;;12.70;73.00;;;;;;5074010;28;20028;-70
2023/12/21 00:42:06;;;;;;;0.50;0.50;;;12.70;72.90;;;;;;5074778;28;20043;-72
2023/12/21 00:44:32;;;;;;;0.45;0.45;;;12.70;72.80;;;;;;5074276;28;20083;-70
2023/12/21 00:46:57;;;;;;;0.50;0.50;;;12.70;72.80;;;;;;5072248;28;20228;-71
2023/12/21 00:49:23;;;;;;;0.40;0.40;;;12.70;72.80;;;;;;5071483;28;20036;-70
2023/12/21 00:51:48;;;;;;;0.40;0.40;;;12.80;72.90;;;;;;5071316;28;20056;-71
2023/12/21 00:54:14;;;;;;;0.50;0.50;;;12.80;72.90;;;;;;5070847;28;20043;-71
2023/12/21 00:56:39;;;;;;;0.40;0.40;;;12.80;72.80;;;;;;5072083;28;20043;-70
2023/12/21 00:59:05;;;;;;;0.60;0.60;;;12.80;72.80;;;;;;5074753;28;20051;-72
2023/12/21 01:01:31;;;;;;;0.40;0.40;;;12.80;72.80;;;;;;5078573;28;20036;-72
2023/12/21 01:03:56;;;;;;;0.43;0.43;;;12.80;72.80;;;;;;5072382;28;20036;-69
2023/12/21 01:06:22;;;;;;;0.40;0.40;;;12.80;72.80;;;;;;5071762;28;20032;-69
2023/12/21 01:08:47;;;;;;;0.43;0.43;;;12.80;72.80;;;;;;5071772;28;20029;-70
2023/12/21 01:11:13;;;;;;;0.40;0.40;;;12.80;72.80;;;;;;5071051;28;20033;-69
2023/12/21 01:13:39;;;;;;;0.50;0.50;;;12.80;72.90;;;;;;5071543;28;20036;-70
2023/12/21 01:16:04;;;;;;;0.50;0.50;;;12.80;72.80;;;;;;5071615;28;20054;-70
2023/12/21 01:18:30;;;;;;;0.40;0.40;;;12.80;72.80;;;;;;5073986;28;20032;-71
2023/12/21 01:20:55;;;;;;;0.50;0.50;;;12.80;72.80;;;;;;5059943;28;20385;-71
2023/12/21 01:23:22;;;;;;;0.40;0.40;;;12.80;72.80;;;;;;5078210;28;20088;-71
2023/12/21 01:25:47;;;;;;;0.55;0.55;;;12.80;72.80;;;;;;5078557;28;20021;-71
2023/12/21 01:28:13;;;;;;;0.40;0.40;;;12.80;72.80;;;;;;5076567;28;20040;-72
2023/12/21 01:30:38;;;;;;;0.40;0.40;;;12.80;72.70;;;;;;5078247;28;20036;-71
2023/12/21 01:33:04;;;;;;;0.43;0.43;;;12.90;72.80;;;;;;5060483;28;20403;-71
2023/12/21 01:35:29;;;;;;;0.43;0.43;;;12.90;72.80;;;;;;5078151;28;20459;-71
2023/12/21 01:37:55;;;;;;;0.30;0.30;;;12.90;72.90;;;;;;5079231;28;20032;-71
2023/12/21 01:40:22;;;;;;;0.57;0.57;;;12.90;72.80;;;;;;5078648;28;20032;-71
2023/12/21 01:42:48;;;;;;;0.60;0.60;;;12.90;72.80;;;;;;5079447;28;20032;-71
2023/12/21 01:45:14;;;;;;;0.40;0.40;;;12.90;72.90;;;;;;5071546;28;20471;-70
2023/12/21 01:47:40;;;;;;;0.50;0.50;;;12.90;72.90;;;;;;5071045;28;20036;-69
2023/12/21 01:50:06;;;;;;;0.50;0.50;;;12.90;72.80;;;;;;5071251;28;20036;-70
2023/12/21 01:52:32;;;;;;;0.40;0.40;;;12.90;72.70;;;;;;5053253;28;20059;-70
2023/12/21 01:54:58;;;;;;;0.50;0.50;;;12.90;72.80;;;;;;5071131;28;20068;-70
2023/12/21 01:57:24;;;;;;;0.50;0.50;;;13.00;72.80;;;;;;5071345;28;20441;-70
2023/12/21 01:59:51;;;;;;;0.50;0.50;;;13.00;72.70;;;;;;5070770;28;20036;-70
2023/12/21 02:02:16;;;;;;;0.40;0.40;;;13.00;72.70;;;;;;5071410;28;20075;-70
2023/12/21 02:04:42;;;;;;;0.40;0.40;;;13.00;72.70;;;;;;5071018;28;20056;-69
2023/12/21 02:07:07;;;;;;;0.40;0.40;;;13.00;72.70;;;;;;5070880;28;20043;-71
2023/12/21 02:09:33;;;;;;;0.40;0.40;;;13.00;72.70;;;;;;5053186;28;20028;-71
2023/12/21 02:11:58;;;;;;;0.40;0.40;;;13.00;72.80;;;;;;5071056;28;20502;-70
2023/12/21 02:14:24;;;;;;;0.40;0.40;;;13.00;72.80;;;;;;5071523;28;20434;-70
2023/12/21 02:16:56;;;;;;;0.50;0.50;;;13.00;72.90;;;;;;5074512;28;20033;-70
2023/12/21 02:19:23;;;;;;;0.63;0.63;;;13.00;72.80;;;;;;5074865;28;20036;-70
2023/12/21 02:21:50;;;;;;;0.35;0.35;;;13.00;72.80;;;;;;5074566;28;20494;-70
2023/12/21 02:24:17;;;;;;;0.40;0.40;;;13.00;72.80;;;;;;5056683;28;20024;-71
2023/12/21 02:26:43;;;;;;;0.50;0.50;;;13.00;72.80;;;;;;5074262;28;20073;-70
2023/12/21 02:29:08;;;;;;;0.47;0.47;;;13.00;72.80;;;;;;5074820;28;20044;-71
2023/12/21 02:31:34;;;;;;;0.40;0.40;;;13.00;72.80;;;;;;5073340;28;20039;-71
2023/12/21 02:34:00;;;;;;;0.50;0.50;;;13.10;72.70;;;;;;5073380;28;20111;-70
2023/12/21 02:36:25;;;;;;;0.82;0.82;;;13.10;72.70;;;;;;5072438;28;20488;-70
2023/12/21 02:38:51;;;;;;;0.47;0.47;;;13.10;72.80;;;;;;5078088;28;20039;-72
2023/12/21 02:41:17;;;;;;;0.55;0.55;;;13.10;72.80;;;;;;5062476;28;20043;-72
2023/12/21 02:43:42;;;;;;;0.40;0.40;;;13.10;72.70;;;;;;5083070;28;20028;-72
2023/12/21 02:46:08;;;;;;;0.40;0.40;;;13.10;72.80;;;;;;5082462;28;20027;-72
2023/12/21 02:48:33;;;;;;;0.40;0.40;;;13.10;72.80;;;;;;5082425;28;20029;-72
2023/12/21 02:51:00;;;;;;;0.50;0.50;;;13.10;72.80;;;;;;5082001;28;20071;-72
2023/12/21 02:53:25;;;;;;;0.40;0.40;;;13.10;72.80;;;;;;5082226;28;20033;-72
2023/12/21 02:55:51;;;;;;;0.40;0.40;;;13.10;72.70;;;;;;5083394;28;20098;-72
2023/12/21 02:58:17;;;;;;;0.40;0.40;;;13.10;72.70;;;;;;5082239;28;20017;-72
2023/12/21 03:00:42;;;;;;;0.40;0.40;;;13.10;72.80;;;;;;5082499;28;20484;-72
2023/12/21 03:03:08;;;;;;;0.43;0.43;;;13.10;72.70;;;;;;5080310;28;20441;-72
2023/12/21 03:05:33;;;;;;;0.40;0.40;;;13.10;72.60;;;;;;5073539;28;20033;-72
2023/12/21 03:07:59;;;;;;;0.43;0.43;;;13.10;72.80;;;;;;5082261;28;20475;-72
2023/12/21 03:10:24;;;;;;;0.40;0.40;;;13.10;72.80;;;;;;5080799;28;20044;-72
2023/12/21 03:12:50;;;;;;;0.50;0.50;;;13.20;72.80;;;;;;5080046;28;20375;-72
2023/12/21 03:15:15;;;;;;;0.40;0.40;;;13.20;72.70;;;;;;5079304;28;20032;-72
2023/12/21 03:17:41;;;;;;;0.45;0.45;;;13.10;72.80;;;;;;5078977;28;20353;-72
2023/12/21 03:20:07;;;;;;;0.40;0.40;;;13.10;72.70;;;;;;5079711;28;20055;-72
2023/12/21 03:22:36;;;;;;;0.40;0.40;;;13.10;72.70;;;;;;5079375;28;20150;-72
2023/12/21 03:25:01;;;;;;;0.30;0.30;;;13.10;72.60;;;;;;5078826;28;20028;-72
2023/12/21 03:27:27;;;;;;;0.40;0.40;;;13.20;72.60;;;;;;5076194;28;20036;-72
2023/12/21 03:29:52;;;;;;;0.40;0.40;;;13.10;72.70;;;;;;5077891;28;20040;-72
2023/12/21 03:32:18;;;;;;;0.40;0.40;;;13.20;72.70;;;;;;5077299;28;20063;-72
2023/12/21 03:34:43;;;;;;;0.47;0.47;;;13.20;72.80;;;;;;5080125;28;20037;-72
2023/12/21 03:37:09;;;;;;;0.90;0.90;;;13.20;72.80;;;;;;5079540;28;20028;-72
2023/12/21 03:39:34;;;;;;;0.43;0.43;;;13.20;72.90;;;;;;5079758;28;20059;-72
2023/12/21 03:42:02;;;;;;;0.50;0.50;;;13.20;72.90;;;;;;5078654;28;20382;-72
2023/12/21 03:44:27;;;;;;;0.50;0.50;;;13.20;72.80;;;;;;5077272;28;20158;-72
2023/12/21 03:46:53;;;;;;;0.40;0.40;;;13.20;72.80;;;;;;5077875;28;20056;-72
2023/12/21 03:49:18;;;;;;;0.50;0.50;;;13.20;72.80;;;;;;5072671;28;20074;-70
2023/12/21 03:51:44;;;;;;;0.40;0.40;;;13.30;72.70;;;;;;5072909;28;20033;-69
2023/12/21 03:54:09;;;;;;;0.40;0.40;;;13.20;72.60;;;;;;5071770;28;20032;-70
2023/12/21 03:56:38;;;;;;;0.50;0.50;;;13.30;72.70;;;;;;5072848;28;20420;-70
2023/12/21 03:59:04;;;;;;;0.40;0.40;;;13.20;72.70;;;;;;5047832;28;20025;-70
2023/12/21 04:01:29;;;;;;;0.40;0.40;;;13.20;72.70;;;;;;5052665;28;20082;-70
2023/12/21 04:03:55;;;;;;;0.40;0.40;;;13.20;72.70;;;;;;5064472;28;20032;-69
2023/12/21 04:06:21;;;;;;;0.40;0.40;;;13.20;72.70;;;;;;5072498;28;20036;-70
2023/12/21 04:08:46;;;;;;;0.45;0.45;;;13.20;72.60;;;;;;5072800;28;20040;-70
2023/12/21 04:11:12;;;;;;;0.40;0.40;;;13.20;72.60;;;;;;5072302;28;20465;-70
2023/12/21 04:13:38;;;;;;;0.40;0.40;;;13.20;72.70;;;;;;5054411;28;20029;-70
2023/12/21 04:16:05;;;;;;;0.40;0.40;;;13.20;72.80;;;;;;5071954;28;20495;-70
2023/12/21 04:18:32;;;;;;;0.40;0.40;;;13.20;72.80;;;;;;5050361;28;20555;-72
2023/12/21 04:20:57;;;;;;;0.40;0.40;;;13.30;72.60;;;;;;5059957;28;20483;-70
2023/12/21 04:23:24;;;;;;;0.50;0.50;;;13.20;72.70;;;;;;5071695;28;20025;-70
2023/12/21 04:25:50;;;;;;;0.40;0.40;;;13.20;72.80;;;;;;5071488;28;20032;-70
2023/12/21 04:28:16;;;;;;;0.50;0.50;;;13.20;72.80;;;;;;5061933;28;20392;-70
2023/12/21 04:30:41;;;;;;;0.40;0.40;;;13.20;72.80;;;;;;5072025;28;20487;-71
2023/12/21 04:33:10;;;;;;;0.40;0.40;;;13.20;72.80;;;;;;5072019;28;20024;-70
2023/12/21 04:35:36;;;;;;;0.40;0.40;;;13.30;72.70;;;;;;5071991;28;20027;-70
2023/12/21 04:38:01;;;;;;;0.40;0.40;;;13.30;72.70;;;;;;5071871;28;20107;-70
2023/12/21 04:40:27;;;;;;;0.50;0.50;;;13.30;72.70;;;;;;5069666;28;20066;-70
2023/12/21 04:42:55;;;;;;;0.88;0.75;;;13.30;72.70;;;;;;5071733;28;20453;-70
2023/12/21 04:45:24;;;;;;;0.40;0.40;;;13.30;72.60;;;;;;5071745;28;20017;-71
2023/12/21 04:47:49;;;;;;;0.50;0.50;;;13.30;72.80;;;;;;5071697;28;20463;-70
2023/12/21 04:50:15;;;;;;;0.40;0.40;;;13.30;72.70;;;;;;5053701;28;20040;-70
2023/12/21 04:52:40;;;;;;;0.40;0.40;;;13.30;72.70;;;;;;5070733;28;20032;-70
2023/12/21 04:55:07;;;;;;;0.50;0.50;;;13.20;72.90;;;;;;5071526;28;20044;-70
2023/12/21 04:57:32;;;;;;;0.40;0.40;;;13.30;72.70;;;;;;5071728;28;20079;-71
2023/12/21 04:59:58;;;;;;;0.40;0.40;;;13.30;72.80;;;;;;5074987;28;20033;-72
2023/12/21 05:02:23;;;;;;;0.40;0.40;;;13.20;72.80;;;;;;5075362;28;20357;-72
2023/12/21 05:04:49;;;;;;;0.40;0.40;;;13.30;72.70;;;;;;5075385;28;20112;-72
2023/12/21 05:07:14;;;;;;;0.40;0.40;;;13.30;72.80;;;;;;5074800;28;20028;-72
2023/12/21 05:09:40;;;;;;;0.40;0.40;;;13.30;72.70;;;;;;5074742;28;20112;-72
2023/12/21 05:12:06;;;;;;;0.40;0.40;;;13.30;72.70;;;;;;5074140;28;20032;-72
2023/12/21 05:14:32;;;;;;;0.50;0.50;;;13.30;72.60;;;;;;5074834;28;20041;-71
2023/12/21 05:16:58;;;;;;;0.50;0.50;;;13.30;72.70;;;;;;5072287;28;20024;-71
2023/12/21 05:19:23;;;;;;;0.50;0.50;;;13.30;72.70;;;;;;5068878;28;20045;-71
2023/12/21 05:21:49;;;;;;;0.40;0.40;;;13.30;72.70;;;;;;5072732;28;20111;-71
2023/12/21 05:24:14;;;;;;;0.50;0.50;;;13.30;72.70;;;;;;5073577;28;20027;-71
2023/12/21 05:26:39;;;;;;;0.40;0.40;;;13.30;72.70;;;;;;5054667;28;20093;-71
2023/12/21 05:29:05;;;;;;;0.50;0.50;;;13.30;72.70;;;;;;5073819;28;20047;-71
2023/12/21 05:31:30;;;;;;;0.40;0.40;;;13.30;72.80;;;;;;5067427;28;20043;-71
2023/12/21 05:33:56;;;;;;;0.40;0.40;;;13.30;72.70;;;;;;5069887;28;20067;-71
2023/12/21 05:36:25;;;;;;;0.40;0.40;;;13.30;72.60;;;;;;5069402;28;20033;-71
2023/12/21 05:38:50;;;;;;;0.40;0.40;;;13.30;72.80;;;;;;5052415;28;20137;-72
2023/12/21 05:41:17;;;;;;;0.63;0.63;;;13.30;72.70;;;;;;5052170;28;20101;-71
2023/12/21 05:43:43;;;;;;;0.55;0.55;;;13.30;72.60;;;;;;5071840;28;20033;-71
2023/12/21 05:46:08;;;;;;;0.50;0.50;;;13.30;72.80;;;;;;5071601;28;20375;-71
2023/12/21 05:48:34;;;;;;;0.40;0.40;;;13.30;72.70;;;;;;5074103;28;20107;-71
2023/12/21 05:50:59;;;;;;;0.50;0.50;;;13.30;72.70;;;;;;5076538;28;20032;-71
2023/12/21 05:53:25;;;;;;;0.40;0.40;;;13.30;72.70;;;;;;5060772;28;20021;-71
2023/12/21 05:55:50;;;;;;;0.50;0.50;;;13.30;72.70;;;;;;5079179;28;20033;-71
2023/12/21 05:58:16;;;;;;;0.70;0.70;;;13.30;72.70;;;;;;5079202;28;20464;-71
2023/12/21 06:00:41;;;;;;;0.40;0.40;;;13.30;72.70;;;;;;5078678;28;20063;-71
2023/12/21 06:03:07;;;;;;;0.47;0.47;;;13.30;72.70;;;;;;5079125;28;20033;-71
2023/12/21 06:05:33;;;;;;;0.40;0.40;;;13.30;72.50;;;;;;5079114;28;20090;-71
2023/12/21 06:07:58;;;;;;;0.47;0.47;;;13.30;72.70;;;;;;5079566;28;20037;-71
2023/12/21 06:10:24;;;;;;;0.40;0.40;;;13.30;72.70;;;;;;5080900;28;20054;-71
2023/12/21 06:12:49;;;;;;;0.40;0.40;;;13.30;72.70;;;;;;5063182;28;20025;-71
2023/12/21 06:15:15;;;;;;;0.45;0.45;;;13.30;72.70;;;;;;5059665;28;20472;-71
2023/12/21 06:17:41;;;;;;;0.40;0.40;;;13.30;72.50;;;;;;5079262;28;20063;-71
2023/12/21 06:20:07;;;;;;;0.40;0.40;;;13.30;72.60;;;;;;5059365;28;20048;-71
2023/12/21 06:22:32;;;;;;;0.50;0.50;;;13.30;72.80;;;;;;5078885;28;20029;-71
2023/12/21 06:24:58;;;;;;;0.40;0.40;;;13.30;72.60;;;;;;5079703;28;20493;-71
2023/12/21 06:27:23;;;;;;;0.40;0.40;;;13.30;72.60;;;;;;5079485;28;20028;-71
2023/12/21 06:29:49;;;;;;;0.40;0.40;;;13.30;72.70;;;;;;5079466;28;20028;-71
2023/12/21 06:32:14;;;;;;;0.40;0.40;;;13.30;72.80;;;;;;5075833;28;20151;-71
2023/12/21 06:34:40;;;;;;;0.40;0.40;;;13.40;72.70;;;;;;5078982;28;20028;-71
2023/12/21 06:37:07;;;;;;;0.43;0.43;;;13.30;72.60;;;;;;5078188;28;20024;-71
2023/12/21 06:39:33;;;;;;;0.60;0.60;;;13.30;72.60;;;;;;5043113;28;20021;-71
2023/12/21 06:41:58;;;;;;;0.50;0.50;;;13.30;72.80;;;;;;5061161;28;20032;-71
2023/12/21 06:44:24;;;;;;;0.50;0.50;;;13.30;72.80;;;;;;5069618;28;20456;-71
2023/12/21 06:46:50;;;;;;;0.50;0.50;;;13.30;72.60;;;;;;5081823;28;20029;-71
2023/12/21 06:49:16;;;;;;;0.55;0.55;;;13.30;72.70;;;;;;5076564;28;20154;-71
2023/12/21 06:51:44;;;;;;;0.40;0.40;;;13.30;72.70;;;;;;5077848;28;20072;-71
2023/12/21 06:54:10;;;;;;;0.45;0.45;;;13.30;72.70;;;;;;5079779;28;20467;-71
2023/12/21 06:56:36;;;;;;;0.80;0.80;;;13.30;72.70;;;;;;5082023;28;20041;-73
2023/12/21 06:59:02;;;;;;;0.60;0.60;;;13.30;72.80;;;;;;5079962;28;20119;-73
2023/12/21 07:01:30;;;;;;;0.40;0.40;;;13.30;72.70;;;;;;5081133;28;20037;-73
2023/12/21 07:03:57;;;;;;;0.50;0.50;;;13.30;72.60;;;;;;5072550;28;20434;-72
2023/12/21 07:06:23;;;;;;;0.30;0.30;;;13.30;72.70;;;;;;5061539;28;20031;-73
2023/12/21 07:08:49;;;;;;;0.40;0.40;;;13.30;72.60;;;;;;5079995;28;20034;-72
2023/12/21 07:11:17;;;;;;;0.52;0.52;;;13.40;72.60;;;;;;5074610;28;20040;-72
2023/12/21 07:13:43;;;;;;;0.50;0.50;;;13.30;72.70;;;;;;5074437;28;20763;-72
2023/12/21 07:16:16;;;;;;;0.40;0.40;;;13.40;72.60;;;;;;5072773;28;20394;-73
2023/12/21 07:18:42;;;;;;;0.40;0.40;;;13.30;72.70;;;;;;5076631;28;20052;-72
2023/12/21 07:21:07;;;;;;;0.40;0.40;;;13.40;72.80;;;;;;5077487;28;20028;-72
2023/12/21 07:23:33;;;;;;;1.10;0.70;;;13.40;72.70;;;;;;5079811;28;20078;-72
2023/12/21 07:25:58;;;;;;;0.40;0.40;;;13.40;72.60;;;;;;5076585;28;20055;-72
2023/12/21 07:28:25;;;;;;;0.70;0.70;;;13.30;72.80;;;;;;5079559;28;20112;-72
2023/12/21 07:30:51;;;;;;;0.40;0.40;;;13.30;72.70;;;;;;5078384;28;20479;-72
2023/12/21 07:33:16;;;;;;;0.43;0.43;;;13.30;72.70;;;;;;5077888;28;20047;-72
2023/12/21 07:35:42;;;;;;;0.50;0.50;;;13.40;72.60;;;;;;5062855;28;20048;-72
2023/12/21 07:38:07;;;;;;;0.40;0.40;;;13.30;72.70;;;;;;5066630;28;20050;-72
2023/12/21 07:40:33;;;;;;;0.40;0.40;;;13.30;72.70;;;;;;5078144;28;20029;-72
2023/12/21 07:42:59;;;;;;;0.40;0.40;;;13.30;72.80;;;;;;5077257;28;20029;-72
2023/12/21 07:45:24;;;;;;;0.50;0.50;;;13.30;72.70;;;;;;5075038;28;20078;-72
2023/12/21 07:47:50;;;;;;;0.45;0.45;;;13.30;72.80;;;;;;5074859;28;20395;-72
2023/12/21 07:50:15;;;;;;;0.50;0.50;;;13.30;72.90;;;;;;5074042;28;20067;-72
2023/12/21 07:52:41;;;;;;;0.50;0.50;;;13.40;72.80;;;;;;5076248;28;20586;-72
2023/12/21 07:55:07;;;;;;;0.45;0.45;;;13.40;72.70;;;;;;5058151;28;20102;-72
2023/12/21 07:57:33;;;;;;;0.40;0.40;;;13.40;72.80;;;;;;5075961;28;20040;-72
2023/12/21 07:59:59;;;;;;;0.85;0.85;;;13.40;72.90;;;;;;5074571;28;20072;-72
2023/12/21 08:02:24;;;;;;;0.35;0.35;;;13.40;72.90;;;;;;5076807;28;20047;-72
2023/12/21 08:04:50;;;;;;;0.95;0.70;;;13.40;72.80;;;;;;5075178;28;20048;-72
2023/12/21 08:07:16;;;;;;;0.50;0.50;;;13.40;72.80;;;;;;5064523;28;20043;-72
2023/12/21 08:09:42;;;;;;;0.40;0.40;;;13.40;72.70;;;;;;5069543;28;20037;-72
2023/12/21 08:12:08;;;;;;;0.40;0.40;;;13.40;72.70;;;;;;5072466;28;20020;-72
2023/12/21 08:14:36;;;;;;;0.70;0.70;;;13.40;72.80;;;;;;5083828;28;20046;-72
2023/12/21 08:17:06;;;;;;;0.40;0.40;;;13.40;72.80;;;;;;5084400;28;20024;-72
2023/12/21 08:19:38;;;;;;;0.43;0.43;;;13.40;73.00;;;;;;5085873;28;20028;-72
2023/12/21 08:22:04;;;;;;;0.40;0.40;;;13.50;72.90;;;;;;5084151;28;20039;-72
2023/12/21 08:24:30;;;;;;;0.70;0.50;;;13.50;72.90;;;;;;5087433;28;20036;-72
2023/12/21 08:26:55;;;;;;;0.85;0.85;;;13.50;72.90;;;;;;5085903;28;20028;-72
2023/12/21 08:29:21;;;;;;;0.47;0.47;;;13.50;72.80;;;;;;5076754;28;20099;-70
2023/12/21 08:31:46;;;;;;;0.40;0.40;;;13.40;72.80;;;;;;5069898;28;20491;-71
2023/12/21 08:34:12;;;;;;;0.40;0.40;;;13.40;73.00;;;;;;5071773;28;20036;-70
2023/12/21 08:36:38;;;;;;;0.40;0.40;;;13.50;72.90;;;;;;5070490;28;20119;-70
2023/12/21 08:39:04;;;;;;;0.40;0.40;;;13.50;73.00;;;;;;5071616;28;20471;-70
2023/12/21 08:41:29;;;;;;;0.40;0.40;;;13.50;72.90;;;;;;5068666;28;20093;-70
2023/12/21 08:43:55;;;;;;;0.50;0.50;;;13.50;72.80;;;;;;5070390;28;20029;-70
2023/12/21 08:46:21;;;;;;;0.85;0.85;;;13.50;72.90;;;;;;5071649;28;20029;-70
2023/12/21 08:48:46;;;;;;;0.43;0.43;;;13.50;72.90;;;;;;5071782;28;20032;-70
2023/12/21 08:51:14;;;;;;;0.57;0.57;;;13.50;72.90;;;;;;5074868;28;20048;-70
2023/12/21 08:53:39;;;;;;;0.40;0.40;;;13.50;72.90;;;;;;5071650;28;20028;-70
2023/12/21 08:56:05;;;;;;;0.43;0.43;;;13.50;72.90;;;;;;5070896;28;20090;-71
2023/12/21 08:58:31;;;;;;;0.40;0.40;;;13.50;72.80;;;;;;5052739;28;20029;-70
2023/12/21 09:00:58;;;;;;;0.50;0.50;;;13.50;72.90;;;;;;5074176;28;20123;-70
2023/12/21 09:03:24;;;;;;;0.50;0.50;;;13.50;72.90;;;;;;5079059;28;20021;-70
2023/12/21 09:05:50;;;;;;;0.40;0.40;;;13.50;72.90;;;;;;5051574;28;20047;-70
2023/12/21 09:08:16;;;;;;;0.60;0.60;;;13.50;72.90;;;;;;5071268;28;20480;-70
2023/12/21 09:10:41;;;;;;;0.40;0.40;;;13.60;72.70;;;;;;5067012;28;20029;-70
2023/12/21 09:13:08;;;;;;;0.40;0.40;;;13.60;72.70;;;;;;5070643;28;20420;-70
2023/12/21 09:15:36;;;;;;;0.50;0.50;;;13.60;72.80;;;;;;5070411;28;20471;-70
2023/12/21 09:18:03;;;;;;;0.40;0.40;;;13.60;73.00;;;;;;5068076;28;20032;-70
2023/12/21 09:20:28;;;;;;;0.40;0.40;;;13.60;73.10;;;;;;5072702;28;20042;-69
2023/12/21 09:22:54;;;;;;;0.50;0.50;;;13.70;73.00;;;;;;5073636;28;20029;-70
2023/12/21 09:25:19;;;;;;;0.40;0.40;;;13.70;72.90;;;;;;5070393;28;20036;-69
2023/12/21 09:27:45;;;;;;;0.70;0.70;;;13.70;73.00;;;;;;5070136;28;20127;-70
2023/12/21 09:30:11;;;;;;;0.40;0.40;;;13.70;73.10;;;;;;5065591;28;20041;-69
2023/12/21 09:32:40;;;;;;;0.40;0.40;;;13.70;72.90;;;;;;5070318;28;20025;-70
2023/12/21 09:35:06;;;;;;;0.40;0.40;;;13.70;73.00;;;;;;5071072;28;20032;-71
2023/12/21 09:37:33;;;;;;;0.30;0.30;;;13.70;73.00;;;;;;5068577;28;20028;-71
2023/12/21 09:39:58;;;;;;;0.50;0.50;;;13.80;73.10;;;;;;5077328;28;20036;-72
2023/12/21 09:42:27;;;;;;;0.40;0.40;;;13.80;72.90;;;;;;5096781;28;20104;-72
2023/12/21 09:44:53;;;;;;;0.40;0.40;;;13.80;72.90;;;;;;5062244;28;20024;-72
2023/12/21 09:47:20;;;;;;;0.40;0.40;;;13.70;72.90;;;;;;5077152;28;20021;-71
2023/12/21 09:49:47;;;;;;;0.40;0.40;;;13.70;72.90;;;;;;5075035;28;20468;-71
2023/12/21 09:52:17;;;;;;;0.40;0.40;;;13.80;72.80;;;;;;5073117;28;20488;-72
2023/12/21 09:54:45;;;;;;;0.40;0.40;;;13.80;72.90;;;;;;5081812;28;20044;-71
2023/12/21 09:57:11;;;;;;;0.40;0.40;;;13.80;72.90;;;;;;5080336;28;20032;-71
2023/12/21 09:59:37;;;;;;;0.47;0.47;;;13.80;72.90;;;;;;5081324;28;20029;-71
2023/12/21 10:02:11;;;;;;;0.40;0.40;;;13.80;72.80;;;;;;5094075;28;20360;-71
2023/12/21 10:04:43;;;;;;;0.40;0.40;;;13.80;72.90;;;;;;5074517;28;20111;-71
2023/12/21 10:07:09;;;;;;;0.40;0.40;;;13.80;73.00;;;;;;5079849;28;20052;-72
2023/12/21 10:09:38;;;;;;;0.50;0.50;;;13.80;72.90;;;;;;5082900;28;20055;-72
2023/12/21 10:12:05;;;;;;;0.50;0.50;;;13.80;72.90;;;;;;5080551;28;20669;-72
2023/12/21 10:14:31;;;;;;;0.40;0.40;;;13.80;73.00;;;;;;5089926;28;20033;-72
2023/12/21 10:16:58;;;;;;;0.40;0.40;;;13.80;73.10;;;;;;5081934;28;20059;-72
2023/12/21 10:19:24;;;;;;;0.40;0.40;;;13.90;73.10;;;;;;5082419;28;20471;-72
2023/12/21 10:21:50;;;;;;;0.50;0.50;;;13.90;73.20;;;;;;5094593;28;20092;-71
2023/12/21 10:24:17;;;;;;;0.50;0.50;;;13.90;73.00;;;;;;5090001;28;20035;-72
2023/12/21 10:26:47;;;;;;;0.40;0.40;;;13.90;73.00;;;;;;5082378;28;20559;-72
2023/12/21 10:29:17;;;;;;;0.40;0.40;;;13.90;73.10;;;;;;5084302;28;20036;-72
2023/12/21 10:31:47;;;;;;;0.40;0.40;;;14.00;73.20;;;;;;5080814;28;20098;-72
2023/12/21 10:34:13;;;;;;;0.40;0.40;;;14.00;73.00;;;;;;5078836;28;20111;-73
2023/12/21 10:36:40;;;;;;;0.40;0.40;;;14.00;73.00;;;;;;5081176;28;20470;-73
2023/12/21 10:39:08;;;;;;;0.40;0.40;;;14.00;73.10;;;;;;5085188;28;20029;-73
2023/12/21 10:41:33;;;;;;;0.40;0.40;;;14.00;73.00;;;;;;5094002;28;20024;-73
2023/12/21 10:43:59;;;;;;;0.52;0.52;;;14.10;73.30;;;;;;5093803;28;20154;-73
2023/12/21 10:46:30;;;;;;;0.60;0.60;;;14.20;73.20;;;;;;5089931;28;20029;-73
2023/12/21 10:48:59;;;;;;;0.40;0.40;;;14.20;73.20;;;;;;5086835;28;20036;-72
2023/12/21 10:51:30;;;;;;;0.30;0.30;;;14.10;73.10;;;;;;5082971;28;20105;-73
2023/12/21 10:53:58;;;;;;;0.40;0.40;;;14.10;73.20;;;;;;5080583;28;20021;-72
2023/12/21 10:56:25;;;;;;;0.40;0.40;;;14.20;73.20;;;;;;5083937;28;20037;-72
2023/12/21 10:58:52;;;;;;;0.50;0.50;;;14.20;73.20;;;;;;5082831;28;20029;-73
2023/12/21 11:01:20;;;;;;;0.50;0.50;;;14.20;73.30;;;;;;5073081;28;20127;-71
2023/12/21 11:03:48;;;;;;;1.15;1.05;;;14.20;73.10;;;;;;5096532;28;20046;-72
2023/12/21 11:06:16;;;;;;;0.40;0.40;;;14.30;73.00;;;;;;5088656;28;20040;-72
2023/12/21 11:08:44;;;;;;;0.43;0.43;;;14.20;73.00;;;;;;5088359;28;20074;-72
2023/12/21 11:11:12;;;;;;;0.50;0.50;;;14.20;73.00;;;;;;5081816;28;20025;-72
2023/12/21 11:13:42;;;;;;;0.40;0.40;;;14.30;73.20;;;;;;5076665;28;20024;-73
2023/12/21 11:16:12;;;;;;;0.40;0.40;;;14.30;73.10;;;;;;5082754;28;20481;-73
2023/12/21 11:18:40;;;;;;;0.50;0.50;;;14.30;73.10;;;;;;5074547;28;20391;-72
2023/12/21 11:21:06;;;;;;;0.50;0.50;;;14.30;73.10;;;;;;5083726;28;20028;-73
2023/12/21 11:23:39;;;;;;;0.40;0.40;;;14.30;73.10;;;;;;5082535;28;20483;-73
2023/12/21 11:26:06;;;;;;;0.40;0.40;;;14.30;73.20;;;;;;5083833;28;20037;-71
2023/12/21 11:28:34;;;;;;;0.40;0.40;;;14.30;73.20;;;;;;5079546;28;20052;-72
2023/12/21 11:31:13;;;;;;;0.40;0.40;;;14.40;73.20;;;;;;5070941;28;20391;-72
2023/12/21 11:33:39;;;;;;;0.50;0.50;;;14.30;73.10;;;;;;5101236;28;20017;-73
2023/12/21 11:36:05;;;;;;;0.40;0.40;;;14.40;73.10;;;;;;5084135;28;20039;-73
2023/12/21 11:38:48;;;;;;;0.50;0.50;;;14.30;73.10;;;;;;5082121;28;20048;-71
2023/12/21 11:41:14;;;;;;;0.40;0.40;;;14.30;73.20;;;;;;5075044;28;20025;-73
2023/12/21 11:43:41;;;;;;;0.50;0.50;;;14.30;73.20;;;;;;5060059;28;20130;-71
2023/12/21 11:46:09;;;;;;;0.40;0.40;;;14.30;73.20;;;;;;5080521;28;20029;-71
2023/12/21 11:48:37;;;;;;;2.92;1.00;;;14.30;73.30;;;;;;5081576;28;20025;-71
2023/12/21 11:51:03;;;;;;;0.60;0.60;;;14.40;73.20;;;;;;5078521;28;20475;-71
2023/12/21 11:53:29;;;;;;;0.35;0.35;;;14.40;73.20;;;;;;5090992;28;20075;-71
2023/12/21 11:55:55;;;;;;;0.40;0.40;;;14.40;73.10;;;;;;5077040;28;20055;-72
2023/12/21 11:58:23;;;;;;;0.40;0.40;;;14.40;73.30;;;;;;5075616;28;20053;-72
2023/12/21 12:00:51;;;;;;;0.50;0.50;;;14.50;73.30;;;;;;5074944;28;20024;-73
2023/12/21 12:03:20;;;;;;;0.40;0.40;;;14.40;73.10;;;;;;5079510;28;20036;-72
2023/12/21 12:05:48;;;;;;;0.75;0.75;;;14.40;73.10;;;;;;5087798;28;20055;-73
2023/12/21 12:08:25;;;;;;;0.40;0.40;;;14.50;73.10;;;;;;5089888;28;20032;-72
2023/12/21 12:10:55;;;;;;;0.40;0.40;;;14.50;73.20;;;;;;5085301;28;20161;-72
2023/12/21 12:13:24;;;;;;;0.50;0.50;;;14.50;73.30;;;;;;5088544;28;20020;-72
2023/12/21 12:15:52;;;;;;;0.50;0.50;;;14.50;73.40;;;;;;5087397;28;20055;-72
2023/12/21 12:18:19;;;;;;;0.50;0.50;;;14.60;73.30;;;;;;5086534;28;20029;-73
2023/12/21 12:20:47;;;;;;;0.40;0.40;;;14.60;73.20;;;;;;5080842;28;20123;-71
2023/12/21 12:23:13;;;;;;;0.40;0.40;;;14.50;73.10;;;;;;5075066;28;20384;-73
2023/12/21 12:25:39;;;;;;;0.50;0.50;;;14.60;73.00;;;;;;5075859;28;20730;-72
2023/12/21 12:28:05;;;;;;;0.40;0.40;;;14.60;73.00;;;;;;5083833;28;20100;-72
2023/12/21 12:30:31;;;;;;;0.40;0.40;;;14.50;73.10;;;;;;5078420;28;20072;-72
2023/12/21 12:33:02;;;;;;;1.05;1.05;;;14.60;73.10;;;;;;5081704;28;20032;-72
2023/12/21 12:35:28;;;;;;;0.40;0.40;;;14.60;73.00;;;;;;5083627;28;20407;-72
2023/12/21 12:37:54;;;;;;;0.45;0.45;;;14.60;72.90;;;;;;5060719;28;20036;-73
2023/12/21 12:40:22;;;;;;;0.40;0.40;;;14.60;72.50;;;;;;5075678;28;20037;-72
2023/12/21 12:42:48;;;;;;;0.40;0.40;;;14.50;72.30;;;;;;5079585;28;20103;-72